ADDS METAR Data INFO
IDs: Format: Raw Decoded Include TAF

Data at: 0048 UTC 22 Oct 2017

K24J 220035Z AUTO 06005KT 10SM FEW038 23/17 A3020 RMK A01
K24J 220015Z AUTO 06004KT 10SM FEW041 23/17 A3019 RMK A01
K24J 212355Z AUTO 06005KT 10SM SCT046 SCT050 24/17 A3019 RMK A01
K24J 212335Z AUTO 05005KT 10SM FEW042 SCT050 24/17 A3019 RMK A01
K24J 212315Z AUTO 06004KT 10SM CLR 25/16 A3018 RMK A01
K24J 212255Z AUTO 06005KT 10SM CLR 25/16 A3018 RMK A01
K24J 212235Z AUTO VRB05G11KT 10SM CLR 26/16 A3018 RMK A01
K24J 212215Z AUTO VRB06KT 10SM CLR 27/16 A3018 RMK A01
K24J 212155Z AUTO 08009KT 10SM CLR 30/16 A3018 RMK A01
K24J 212135Z AUTO VRB06G14KT 10SM FEW060 31/17 A3017 RMK A01
K24J 212115Z AUTO VRB05KT 10SM FEW060 30/16 A3017 RMK A01
K24J 212055Z AUTO VRB06KT 10SM SCT060 29/16 A3016 RMK A01
K24J 212035Z AUTO 07007G15KT 10SM BKN060 32/15 A3017 RMK A01
K24J 212015Z AUTO 06008KT 10SM SCT060 32/15 A3017 RMK A01
K24J 211955Z AUTO 09008G15KT 060V120 10SM FEW050 FEW065 31/16 A3017 RMK A01
K24J 211935Z AUTO 08007G15KT 040V110 10SM BKN050 BKN060 32/18 A3016 RMK A01
K24J 211915Z AUTO 05007G13KT 10SM FEW050 SCT055 32/17 A3016 RMK A01
K24J 211855Z AUTO 06008KT 10SM FEW049 SCT060 31/17 A3017 RMK A01
K24J 211835Z AUTO 05007G15KT 10SM BKN050 BKN060 30/18 A3017 RMK A01
K24J 211815Z AUTO 03007KT 10SM SCT047 BKN060 31/18 A3017 RMK A01
K24J 211755Z AUTO VRB06KT 10SM FEW060 30/18 A3018 RMK A01
K24J 211735Z AUTO 05007G13KT 10SM FEW046 FEW055 31/17 A3019 RMK A01
K24J 211715Z AUTO 09008G16KT 10SM FEW044 SCT055 32/17 A3020 RMK A01
K24J 211655Z AUTO 06007G13KT 10SM SCT043 BKN055 32/18 A3021 RMK A01
K24J 211635Z AUTO 08007G13KT 050V110 10SM FEW041 SCT050 30/18 A3022 RMK A01
K24J 211615Z AUTO 08007G13KT 10SM FEW036 30/19 A3022 RMK A01
K24J 211555Z AUTO 06007G16KT 10SM FEW036 29/19 A3022 RMK A01
K24J 211535Z AUTO 05011KT 10SM SCT050 28/19 A3022 RMK A01
K24J 211515Z AUTO 05007KT 030V100 10SM SCT050 26/20 A3023 RMK A01
K24J 211455Z AUTO 06006KT 10SM CLR 26/21 A3022 RMK A01
K24J 211435Z AUTO VRB06KT 10SM CLR 25/22 A3022 RMK A01
K24J 211415Z AUTO 06006KT 10SM CLR 24/23 A3022 RMK A01
K24J 211355Z AUTO 04004KT 10SM CLR 23/23 A3022 RMK A01
K24J 211335Z AUTO 04006KT 10SM CLR 22/22 A3022 RMK A01
K24J 211315Z AUTO 04006KT 10SM CLR 21/21 A3022 RMK A01
K24J 211255Z AUTO 04006KT 10SM CLR 20/20 A3021 RMK A01
K24J 211235Z AUTO 04005KT 10SM CLR 19/20 A3020 RMK A01
K24J 211215Z AUTO 04004KT 10SM CLR 19/19 A3020 RMK A01
K24J 211155Z AUTO 04003KT 10SM CLR 19/19 A3019 RMK A01
K24J 211135Z AUTO 05003KT 10SM CLR 19/19 A3019 RMK A01
K24J 211115Z AUTO 05003KT 10SM CLR 19/19 A3018 RMK A01
K24J 211055Z AUTO 00000KT 10SM CLR 19/19 A3018 RMK A01
K24J 211035Z AUTO 04004KT 10SM CLR 19/19 A3017 RMK A01
K24J 211015Z AUTO 04003KT 10SM CLR 19/19 A3017 RMK A01
K24J 210955Z AUTO 05005KT 10SM CLR 19/19 A3016 RMK A01
K24J 210935Z AUTO 05004KT 10SM FEW046 19/19 A3015 RMK A01
K24J 210915Z AUTO 05005KT 10SM FEW020 FEW032 SCT046 19/19 A3015 RMK A01
K24J 210855Z AUTO 04003KT 10SM FEW032 FEW039 BKN046 19/19 A3015 RMK A01
K24J 210835Z AUTO 04003KT 10SM FEW033 FEW039 BKN046 19/19 A3015 RMK A01
K24J 210815Z AUTO 00000KT 10SM FEW033 SCT038 OVC045 19/19 A3015 RMK A01
K24J 210755Z AUTO 04003KT 10SM BKN041 BKN049 19/19 A3015 RMK A01
K24J 210735Z AUTO 04004KT 10SM SCT040 BKN045 19/19 A3015 RMK A01
K24J 210715Z AUTO 04004KT 10SM BKN044 BKN050 19/19 A3016 RMK A01
K24J 210655Z AUTO 04004KT 10SM FEW039 SCT047 19/19 A3016 RMK A01
K24J 210635Z AUTO 05003KT 10SM CLR 19/19 A3016 RMK A01
K24J 210615Z AUTO 04004KT 10SM CLR 19/19 A3017 RMK A01
K24J 210555Z AUTO 05004KT 10SM FEW028 FEW036 19/19 A3017 RMK A01
K24J 210535Z AUTO 00000KT 10SM FEW034 FEW043 19/19 A3018 RMK A01
K24J 210515Z AUTO 00000KT 10SM FEW038 SCT044 19/19 A3018 RMK A01
K24J 210455Z AUTO 00000KT 10SM SCT038 SCT045 19/19 A3018 RMK A01
K24J 210435Z AUTO 00000KT 10SM CLR 19/19 A3018 RMK A01
K24J 210415Z AUTO 04004KT 10SM SCT045 20/20 A3018 RMK A01
K24J 210355Z AUTO 00000KT 10SM FEW033 SCT040 BKN047 20/20 A3018 RMK A01
K24J 210335Z AUTO 05003KT 10SM FEW027 BKN034 BKN047 20/20 A3019 RMK A01
K24J 210315Z AUTO 05003KT 10SM OVC033 21/20 A3019 RMK A01
K24J 210255Z AUTO 06003KT 10SM BKN035 OVC043 21/20 A3018 RMK A01
K24J 210235Z AUTO 07004KT 10SM BKN042 BKN050 21/20 A3018 RMK A01
K24J 210215Z AUTO 06004KT 10SM CLR 22/20 A3017 RMK A01
K24J 210155Z AUTO 06004KT 10SM FEW041 FEW048 22/20 A3016 RMK A01
K24J 210135Z AUTO 06005KT 10SM SCT040 BKN049 22/20 A3016 RMK A01
K24J 210115Z AUTO 5.79166706KT 10SM FEW037 SCT043 BKN048 23/20 A3015 RMK A01
K24J 210055Z AUTO 06004KT 10SM FEW046 FEW050 23/20 A3015 RMK A01
K24J 210035Z AUTO 05006KT 10SM FEW034 SCT043 23/19 A3015 RMK A01
K24J 210015Z AUTO 06006KT 10SM SCT042 24/20 A3015 RMK A01
K24J 202355Z AUTO 06004G11KT 10SM FEW042 FEW048 FEW055 24/20 A3015 RMK A01
K24J 202335Z AUTO 05007KT 10SM FEW041 FEW047 SCT055 25/20 A3014 RMK A01
K24J 202315Z AUTO 05007KT 10SM FEW041 FEW046 SCT055 25/19 A3014 RMK A01
K24J 202255Z AUTO 06007KT 10SM CLR 26/19 A3013 RMK A01
K24J 202235Z AUTO 06006G11KT 10SM CLR 28/19 A3012 RMK A01
K24J 202215Z AUTO 04008KT 10SM CLR 30/19 A3012 RMK A01
K24J 202155Z AUTO 05006KT 10SM FEW044 FEW050 30/19 A3012 RMK A01
K24J 202135Z AUTO 04009KT 10SM SCT044 SCT050 32/18 A3012 RMK A01
K24J 202115Z AUTO 04008G13KT 10SM FEW048 32/18 A3012 RMK A01
K24J 202055Z AUTO 08008KT 10SM FEW050 32/17 A3013 RMK A01
K24J 202035Z AUTO 04009KT 10SM FEW050 33/16 A3013 RMK A01
K24J 202015Z AUTO 06006G12KT 10SM CLR 33/16 A3013 RMK A01
K24J 201955Z AUTO 02012KT 10SM CLR 33/15 A3013 RMK A01
K24J 201935Z AUTO 04010KT 10SM CLR 32/15 A3014 RMK A01
K24J 201915Z AUTO 03007G14KT 10SM CLR 33/15 A3014 RMK A01
K24J 201855Z AUTO 07008KT 10SM CLR 32/17 A3015 RMK A01
K24J 201835Z AUTO 04006G12KT 10SM CLR 32/17 A3015 RMK A01
K24J 201815Z AUTO 02009KT 10SM CLR 32/17 A3016 RMK A01
K24J 201755Z AUTO 05007G13KT 10SM CLR 31/17 A3017 RMK A01
K24J 201735Z AUTO 04009KT 10SM FEW038 31/18 A3018 RMK A01
K24J 201715Z AUTO VRB06G11KT 10SM FEW032 31/18 A3019 RMK A01
K24J 201655Z AUTO 04006KT 10SM FEW030 30/19 A3020 RMK A01
K24J 201635Z AUTO 08007KT 10SM FEW029 30/19 A3020 RMK A01
K24J 201615Z AUTO 02008KT 10SM CLR 29/19 A3021 RMK A01
K24J 201555Z AUTO 03008KT 10SM CLR 28/19 A3021 RMK A01
K24J 201535Z AUTO 04007KT 10SM CLR 27/19 A3022 RMK A01
K24J 201515Z AUTO VRB05G10KT 10SM CLR 26/19 A3022 RMK A01
K24J 201455Z AUTO 03007KT 10SM CLR 25/19 A3023 RMK A01
K24J 201435Z AUTO 04006KT 9SM CLR 24/19 A3023 RMK A01
K24J 201415Z AUTO 04008KT 10SM CLR 23/19 A3023 RMK A01
K24J 201355Z AUTO 04007KT 10SM CLR 22/20 A3023 RMK A01
K24J 201335Z AUTO 03005KT 10SM CLR 21/20 A3023 RMK A01
K24J 201315Z AUTO 03006KT 10SM CLR 20/20 A3022 RMK A01
K24J 201255Z AUTO 04005KT 10SM CLR 19/19 A3022 RMK A01